createdAt,value
2019-05-21T00:02:08.182Z,100846.70
2019-05-21T00:04:37.389Z,100846.34
2019-05-21T00:07:06.845Z,100854.27
2019-05-21T00:09:36.070Z,100865.23
2019-05-21T00:12:05.450Z,100859.92
2019-05-21T00:14:35.026Z,100859.52
2019-05-21T00:17:04.241Z,100845.50
2019-05-21T00:19:33.469Z,100844.64
2019-05-21T00:22:02.832Z,100844.15
2019-05-21T00:24:32.069Z,100854.25
2019-05-21T00:27:01.307Z,100859.95
2019-05-21T00:30:06.549Z,100869.19
2019-05-21T00:33:11.701Z,100890.73
2019-05-21T00:36:18.473Z,100875.28
2019-05-21T00:39:23.613Z,100883.31
2019-05-21T00:42:00.606Z,100881.95
2019-05-21T00:44:32.151Z,100868.31
2019-05-21T00:47:01.668Z,100866.14
2019-05-21T00:49:30.978Z,100868.36
2019-05-21T00:52:07.873Z,100866.59
2019-05-21T00:54:31.239Z,100853.35
2019-05-21T00:57:00.499Z,100864.73
2019-05-21T00:59:29.718Z,100860.28
2019-05-21T01:01:59.114Z,100862.00
2019-05-21T01:04:28.397Z,100850.56
2019-05-21T01:07:00.661Z,100857.59
2019-05-21T01:09:30.081Z,100859.29
2019-05-21T01:11:59.481Z,100854.02
2019-05-21T01:14:28.735Z,100854.43
2019-05-21T01:17:00.258Z,100848.72
2019-05-21T01:19:29.599Z,100844.27
2019-05-21T01:21:58.815Z,100842.92
2019-05-21T01:24:28.218Z,100842.94
2019-05-21T01:26:57.455Z,100842.03
2019-05-21T01:29:26.681Z,100846.44
2019-05-21T01:31:56.115Z,100844.67
2019-05-21T01:34:25.358Z,100842.39
2019-05-21T01:36:54.569Z,100845.42
2019-05-21T01:39:24.120Z,100841.47
2019-05-21T01:41:53.507Z,100832.20
2019-05-21T01:44:22.714Z,100834.34
2019-05-21T01:46:52.118Z,100823.41
2019-05-21T01:49:21.369Z,100826.07
2019-05-21T01:51:50.625Z,100823.29
2019-05-21T01:54:20.226Z,100820.10
2019-05-21T01:56:49.528Z,100828.43
2019-05-21T01:59:18.737Z,100825.79
2019-05-21T02:01:48.258Z,100824.89
2019-05-21T02:04:17.494Z,100824.45
2019-05-21T02:06:49.289Z,100809.53
2019-05-21T02:09:18.484Z,100810.88
2019-05-21T02:11:47.716Z,100813.45
2019-05-21T02:14:16.933Z,100819.12
2019-05-21T02:16:46.250Z,100828.31
2019-05-21T02:19:15.722Z,100828.29
2019-05-21T02:21:44.919Z,100839.27
2019-05-21T02:24:14.235Z,100837.97
2019-05-21T02:26:43.702Z,100855.15
2019-05-21T02:29:12.927Z,100847.67
2019-05-21T02:31:42.383Z,100847.22
2019-05-21T02:34:11.652Z,100845.05
2019-05-21T02:36:40.876Z,100847.72
2019-05-21T02:39:10.393Z,100849.02
2019-05-21T02:41:40.174Z,100848.98
2019-05-21T02:44:09.500Z,100843.27
2019-05-21T02:46:38.902Z,100843.28
2019-05-21T02:49:08.250Z,100846.31
2019-05-21T02:51:37.515Z,100852.00
2019-05-21T02:54:07.019Z,100852.41
2019-05-21T02:56:36.281Z,100846.75
2019-05-21T02:59:05.500Z,100846.75
2019-05-21T03:01:41.291Z,100850.72
2019-05-21T03:04:10.504Z,100848.58
2019-05-21T03:06:39.719Z,100850.39
2019-05-21T03:09:09.170Z,100851.30
2019-05-21T03:11:39.596Z,100849.03
2019-05-21T03:14:09.935Z,100852.52
2019-05-21T03:16:39.170Z,100850.29
2019-05-21T03:19:08.392Z,100846.27
2019-05-21T03:21:37.779Z,100839.27
2019-05-21T03:24:07.033Z,100839.62
2019-05-21T03:26:36.237Z,100841.76
2019-05-21T03:29:05.814Z,100841.69
2019-05-21T03:31:35.049Z,100837.28
2019-05-21T03:34:04.282Z,100839.48
2019-05-21T03:36:34.540Z,100840.83
2019-05-21T03:39:05.087Z,100837.78
2019-05-21T03:41:34.437Z,100835.16
2019-05-21T03:44:04.140Z,100832.12
2019-05-21T03:46:33.531Z,100837.84
2019-05-21T03:49:02.973Z,100838.77
2019-05-21T03:51:32.207Z,100837.97
2019-05-21T03:54:01.477Z,100839.80
2019-05-21T03:56:30.804Z,100836.79
2019-05-21T03:59:00.039Z,100833.34
2019-05-21T04:01:29.327Z,100837.40
2019-05-21T04:03:59.797Z,100840.11
2019-05-21T04:06:29.058Z,100841.92
2019-05-21T04:08:58.288Z,100840.19
2019-05-21T04:11:27.612Z,100847.69
2019-05-21T04:13:56.848Z,100844.25
2019-05-21T04:16:54.167Z,100839.84
2019-05-21T04:19:29.107Z,100838.09
2019-05-21T04:21:58.937Z,100837.22
2019-05-21T04:24:28.136Z,100841.62
2019-05-21T04:26:57.431Z,100722.14
2019-05-21T04:29:26.802Z,100838.66
2019-05-21T04:31:56.018Z,100851.06
2019-05-21T04:34:25.385Z,100846.28
2019-05-21T04:37:09.351Z,100847.27
2019-05-21T04:39:26.008Z,100848.22
2019-05-21T04:41:55.238Z,100850.02
2019-05-21T04:44:24.952Z,100849.20
2019-05-21T04:46:54.570Z,100844.84
2019-05-21T04:49:23.783Z,100846.16
2019-05-21T04:51:53.141Z,100849.72
2019-05-21T04:54:22.389Z,100852.86
2019-05-21T04:56:51.609Z,100855.98
2019-05-21T04:59:21.058Z,100852.50
2019-05-21T05:01:50.287Z,100849.48
2019-05-21T05:04:21.900Z,100848.19
2019-05-21T05:06:51.326Z,100847.36
2019-05-21T05:09:20.533Z,100853.13
2019-05-21T05:11:49.766Z,100853.20
2019-05-21T05:14:20.433Z,100851.89
2019-05-21T05:16:49.672Z,100845.73
2019-05-21T05:19:18.951Z,100858.11
2019-05-21T05:21:48.315Z,100868.71
2019-05-21T05:24:17.644Z,100868.31
2019-05-21T05:26:46.867Z,100865.25
2019-05-21T05:29:16.439Z,100861.34
2019-05-21T05:31:45.653Z,100857.48
2019-05-21T05:34:14.883Z,100854.02
2019-05-21T05:36:44.337Z,100851.44
2019-05-21T05:39:13.914Z,100850.14
2019-05-21T05:41:43.126Z,100849.70
2019-05-21T05:44:12.460Z,100845.31
2019-05-21T05:46:41.686Z,100849.33
2019-05-21T05:49:19.646Z,100853.34
2019-05-21T05:51:48.862Z,100847.23
2019-05-21T05:54:18.130Z,100850.34
2019-05-21T05:56:47.500Z,100840.63
2019-05-21T05:59:16.775Z,100842.83
2019-05-21T06:01:46.024Z,100839.28
2019-05-21T06:04:15.646Z,100843.69
2019-05-21T06:06:44.854Z,100838.84
2019-05-21T06:09:14.079Z,100841.05
2019-05-21T06:11:43.558Z,100840.63
2019-05-21T06:14:12.809Z,100840.20
2019-05-21T06:16:42.063Z,100829.63
2019-05-21T06:19:12.983Z,100832.73
2019-05-21T06:21:42.324Z,100819.94
2019-05-21T06:24:13.672Z,100826.57
2019-05-21T06:26:42.728Z,100826.13
2019-05-21T06:29:11.983Z,100827.01
2019-05-21T06:31:41.203Z,100842.91
2019-05-21T06:34:11.090Z,100849.57
2019-05-21T06:36:40.314Z,100862.82
2019-05-21T06:39:09.543Z,100863.69
2019-05-21T06:41:39.040Z,100852.62
2019-05-21T06:44:08.285Z,100850.83
2019-05-21T06:46:37.503Z,100842.85
2019-05-21T06:49:07.060Z,100841.90
2019-05-21T06:51:36.385Z,100844.52
2019-05-21T06:54:05.721Z,100845.33
2019-05-21T06:56:35.148Z,100847.94
2019-05-21T06:59:04.478Z,100852.33
2019-05-21T07:01:33.693Z,100845.15
2019-05-21T07:04:03.026Z,100844.96
2019-05-21T07:06:32.442Z,100849.66
2019-05-21T07:09:01.650Z,100851.38
2019-05-21T07:11:31.012Z,100839.63
2019-05-21T07:14:00.238Z,100836.25
2019-05-21T07:16:29.458Z,100836.37
2019-05-21T07:18:58.958Z,100829.91
2019-05-21T07:21:28.274Z,100837.61
2019-05-21T07:23:57.807Z,100833.84
2019-05-21T07:26:27.251Z,100831.69
2019-05-21T07:28:57.100Z,100839.55
2019-05-21T07:31:26.824Z,100834.34
2019-05-21T07:33:56.485Z,100834.42
2019-05-21T07:36:25.782Z,100826.83
2019-05-21T07:38:55.387Z,100830.91
2019-05-21T07:41:24.899Z,100829.09
2019-05-21T07:43:54.107Z,100832.91
2019-05-21T07:46:23.441Z,100825.28
2019-05-21T07:48:53.013Z,100826.77
2019-05-21T07:51:22.227Z,100825.26
2019-05-21T07:53:51.540Z,100824.88
2019-05-21T07:56:20.899Z,100829.37
2019-05-21T07:58:50.113Z,100837.80
2019-05-21T08:01:19.330Z,100836.89
2019-05-21T08:03:48.806Z,100837.23
2019-05-21T08:06:18.021Z,100836.76
2019-05-21T08:08:47.232Z,100831.80
2019-05-21T08:11:16.553Z,100836.94
2019-05-21T08:13:45.766Z,100838.10
2019-05-21T08:16:15.003Z,100853.33
2019-05-21T08:18:44.341Z,100849.64
2019-05-21T08:21:13.560Z,100851.39
2019-05-21T08:23:42.782Z,100847.52
2019-05-21T08:26:12.299Z,100845.43
2019-05-21T08:28:41.603Z,100844.89
2019-05-21T08:31:10.814Z,100838.33
2019-05-21T08:33:40.403Z,100841.92
2019-05-21T08:36:09.614Z,100850.41
2019-05-21T08:38:38.851Z,100836.32
2019-05-21T08:41:08.308Z,100835.19
2019-05-21T08:43:37.522Z,100837.65
2019-05-21T08:46:06.747Z,100841.55
2019-05-21T08:48:36.103Z,100846.05
2019-05-21T08:51:05.350Z,100849.38
2019-05-21T08:53:34.593Z,100851.28
2019-05-21T08:56:04.515Z,100853.06
2019-05-21T08:58:33.742Z,100856.73
2019-05-21T09:01:02.964Z,100852.39
2019-05-21T09:03:32.475Z,100860.52
2019-05-21T09:06:01.710Z,100677.47
2019-05-21T09:08:30.936Z,100866.02
2019-05-21T09:11:00.299Z,100865.02
2019-05-21T09:13:29.786Z,100865.44
2019-05-21T09:15:59.159Z,100870.74
2019-05-21T09:18:28.729Z,100872.44
2019-05-21T09:20:57.933Z,100877.21
2019-05-21T09:23:27.151Z,100880.48
2019-05-21T09:25:56.501Z,100877.23
2019-05-21T09:28:25.720Z,100872.39
2019-05-21T09:30:54.982Z,100881.89
2019-05-21T09:33:24.429Z,100880.42
2019-05-21T09:35:53.670Z,100881.74
2019-05-21T09:38:22.888Z,100882.72
2019-05-21T09:40:52.630Z,100871.55
2019-05-21T09:43:21.845Z,100864.20
2019-05-21T09:45:51.168Z,100865.86
2019-05-21T09:48:20.644Z,100862.48
2019-05-21T09:50:49.982Z,100865.93
2019-05-21T09:53:19.260Z,100866.99
2019-05-21T09:55:48.735Z,100861.80
2019-05-21T09:58:26.220Z,100864.77
2019-05-21T10:01:17.597Z,100852.88
2019-05-21T10:03:53.392Z,100853.11
2019-05-21T10:06:22.906Z,100854.47
2019-05-21T10:08:52.135Z,100858.30
2019-05-21T10:11:21.395Z,100862.59
2019-05-21T10:13:51.129Z,100855.78
2019-05-21T10:16:20.456Z,100854.37
2019-05-21T10:18:49.669Z,100852.33
2019-05-21T10:21:19.409Z,100851.09
2019-05-21T10:23:49.023Z,100755.05
2019-05-21T10:26:18.242Z,100859.12
2019-05-21T10:28:47.824Z,100848.22
2019-05-21T10:31:17.037Z,100850.39
2019-05-21T10:33:46.265Z,100845.88
2019-05-21T10:36:16.034Z,100848.53
2019-05-21T10:38:45.246Z,100848.77
2019-05-21T10:41:14.798Z,100850.38
2019-05-21T10:43:44.341Z,100853.70
2019-05-21T10:46:13.674Z,100855.69
2019-05-21T10:48:42.897Z,100865.42
2019-05-21T10:51:12.653Z,100858.15
2019-05-21T10:53:42.181Z,100853.52
2019-05-21T10:56:11.402Z,100856.58
2019-05-21T10:58:40.963Z,100856.98
2019-05-21T11:01:19.375Z,100866.80
2019-05-21T11:04:07.867Z,100859.63
2019-05-21T11:06:37.436Z,100863.92
2019-05-21T11:09:10.849Z,100858.74
2019-05-21T11:11:40.333Z,100855.85
2019-05-21T11:14:09.640Z,100861.16
2019-05-21T11:16:38.955Z,100854.02
2019-05-21T11:19:08.540Z,100856.95
2019-05-21T11:21:37.795Z,100858.08
2019-05-21T11:24:07.193Z,100866.20
2019-05-21T11:26:36.809Z,100863.08
2019-05-21T11:29:06.534Z,100867.25
2019-05-21T11:31:35.762Z,100864.14
2019-05-21T11:34:06.515Z,100862.93
2019-05-21T11:36:35.716Z,100862.05
2019-05-21T11:39:07.857Z,100861.47
2019-05-21T11:41:37.213Z,100858.28
2019-05-21T11:44:06.475Z,100849.06
2019-05-21T11:46:36.060Z,100846.66
2019-05-21T11:49:05.516Z,100852.58
2019-05-21T11:51:34.755Z,100861.84
2019-05-21T11:54:04.365Z,100856.98
2019-05-21T11:56:36.138Z,100859.12
2019-05-21T11:59:04.712Z,100868.85
2019-05-21T12:01:34.111Z,100859.61
2019-05-21T12:04:03.357Z,100855.67
2019-05-21T12:06:32.570Z,100858.59
2019-05-21T12:09:06.229Z,100859.36
2019-05-21T12:11:35.520Z,100855.23
2019-05-21T12:14:05.462Z,100852.27
2019-05-21T12:16:34.937Z,100854.59
2019-05-21T12:19:07.794Z,100854.83
2019-05-21T12:21:35.145Z,100857.32
2019-05-21T12:24:04.581Z,100859.97
2019-05-21T12:26:33.830Z,100852.18
2019-05-21T12:29:03.064Z,100854.28
2019-05-21T12:31:32.468Z,100858.66
2019-05-21T12:34:01.749Z,100855.90
2019-05-21T12:36:30.967Z,100862.50
2019-05-21T12:39:13.851Z,100859.20
2019-05-21T12:41:31.346Z,100857.95
2019-05-21T12:44:00.587Z,100857.64
2019-05-21T12:46:30.007Z,100857.25
2019-05-21T12:48:59.280Z,100857.59
2019-05-21T12:51:28.509Z,100855.50
2019-05-21T12:53:57.925Z,100851.70
2019-05-21T12:56:27.199Z,100859.61
2019-05-21T12:59:00.691Z,100856.78
2019-05-21T13:01:28.465Z,100857.10
2019-05-21T13:03:57.842Z,100859.09
2019-05-21T13:06:27.584Z,100859.60
2019-05-21T13:08:57.114Z,100860.30
2019-05-21T13:11:26.681Z,100861.53
2019-05-21T13:13:56.001Z,100850.69
2019-05-21T13:16:25.313Z,100840.58
2019-05-21T13:18:54.669Z,100840.92
2019-05-21T13:21:24.025Z,100839.92
2019-05-21T13:23:53.333Z,100836.07
2019-05-21T13:26:22.587Z,100841.88
2019-05-21T13:28:51.801Z,100835.41
2019-05-21T13:31:21.248Z,100837.88
2019-05-21T13:33:50.504Z,100835.71
2019-05-21T13:36:19.734Z,100835.92
2019-05-21T13:38:49.157Z,100836.56
2019-05-21T13:41:18.390Z,100837.22
2019-05-21T13:43:47.617Z,100836.69
2019-05-21T13:46:17.215Z,100833.50
2019-05-21T13:48:47.279Z,100833.73
2019-05-21T13:51:16.787Z,100835.61
2019-05-21T13:53:46.177Z,100843.80
2019-05-21T13:56:15.485Z,100843.36
2019-05-21T13:58:44.723Z,100838.52
2019-05-21T14:01:16.029Z,100839.56
2019-05-21T14:03:45.651Z,100841.31
2019-05-21T14:06:14.993Z,100838.55
2019-05-21T14:08:44.400Z,100843.25
2019-05-21T14:11:13.648Z,100838.28
2019-05-21T14:13:42.902Z,100841.42
2019-05-21T14:16:12.386Z,100834.19
2019-05-21T14:18:41.675Z,100825.52
2019-05-21T14:21:10.898Z,100829.92
2019-05-21T14:23:41.428Z,100649.33
2019-05-21T14:26:10.961Z,100834.86
2019-05-21T14:28:41.234Z,100827.48
2019-05-21T14:31:10.647Z,100825.55
2019-05-21T14:33:39.979Z,100822.12
2019-05-21T14:36:09.201Z,100831.09
2019-05-21T14:38:38.653Z,100832.34
2019-05-21T14:41:07.890Z,100824.97
2019-05-21T14:43:37.103Z,100824.23
2019-05-21T14:46:07.210Z,100827.89
2019-05-21T14:48:36.477Z,100831.77
2019-05-21T14:51:05.842Z,100821.48
2019-05-21T14:53:35.190Z,100820.23
2019-05-21T14:56:04.459Z,100832.86
2019-05-21T14:58:33.694Z,100822.41
2019-05-21T15:01:03.398Z,100823.06
2019-05-21T15:03:32.643Z,100822.92
2019-05-21T15:06:01.879Z,100825.54
2019-05-21T15:08:32.090Z,100828.21
2019-05-21T15:11:01.483Z,100822.66
2019-05-21T15:13:30.713Z,100825.95
2019-05-21T15:16:00.195Z,100822.38
2019-05-21T15:18:29.655Z,100823.28
2019-05-21T15:21:20.933Z,100820.23
2019-05-21T15:23:50.469Z,100817.17
2019-05-21T15:26:19.889Z,100811.05
2019-05-21T15:28:49.291Z,100811.70
2019-05-21T15:31:18.571Z,100811.91
2019-05-21T15:33:47.823Z,100815.94
2019-05-21T15:36:17.227Z,100821.10
2019-05-21T15:38:50.684Z,100822.23
2019-05-21T15:41:17.461Z,100821.73
2019-05-21T15:43:46.962Z,100816.72
2019-05-21T15:46:16.282Z,100818.02
2019-05-21T15:48:45.505Z,100818.38
2019-05-21T15:51:14.918Z,100818.64
2019-05-21T15:53:44.183Z,100817.26
2019-05-21T15:56:13.415Z,100818.80
2019-05-21T15:58:42.732Z,100815.26
2019-05-21T16:01:12.150Z,100810.39
2019-05-21T16:03:41.390Z,100813.70
2019-05-21T16:06:10.880Z,100811.86
2019-05-21T16:08:40.259Z,100808.41
2019-05-21T16:11:27.022Z,100809.38
2019-05-21T16:13:40.935Z,100810.22
2019-05-21T16:16:10.351Z,100810.72
2019-05-21T16:18:39.603Z,100814.41
2019-05-21T16:21:25.862Z,100806.86
2019-05-21T16:23:55.130Z,100809.66
2019-05-21T16:26:24.550Z,100811.08
2019-05-21T16:28:54.017Z,100811.21
2019-05-21T16:31:23.331Z,100812.55
2019-05-21T16:33:52.603Z,100814.90
2019-05-21T16:36:22.162Z,100816.79
2019-05-21T16:38:51.388Z,100814.84
2019-05-21T16:41:20.769Z,100817.51
2019-05-21T16:43:50.350Z,100817.00
2019-05-21T16:46:19.986Z,100815.11
2019-05-21T16:48:49.424Z,100817.80
2019-05-21T16:51:19.055Z,100822.93
2019-05-21T16:53:48.306Z,100816.00
2019-05-21T16:56:17.570Z,100819.84
2019-05-21T16:58:47.051Z,100814.64
2019-05-21T17:01:17.352Z,100814.49
2019-05-21T17:03:59.064Z,100744.27
2019-05-21T17:06:17.767Z,100814.55
2019-05-21T17:08:47.108Z,100823.91
2019-05-21T17:11:16.364Z,100826.78
2019-05-21T17:13:45.946Z,100824.59
2019-05-21T17:16:15.276Z,100825.45
2019-05-21T17:18:44.574Z,100707.26
2019-05-21T17:21:14.154Z,100836.00
2019-05-21T17:23:43.507Z,100834.41
2019-05-21T17:26:12.817Z,100838.98
2019-05-21T17:28:42.424Z,100836.99
2019-05-21T17:31:11.788Z,100844.01
2019-05-21T17:33:41.049Z,100845.11
2019-05-21T17:36:10.580Z,100843.23
2019-05-21T17:38:39.897Z,100843.95
2019-05-21T17:41:09.191Z,100846.63
2019-05-21T17:43:38.556Z,100842.89
2019-05-21T17:46:07.835Z,100845.58
2019-05-21T17:48:37.131Z,100853.65
2019-05-21T17:51:09.041Z,100856.41
2019-05-21T17:53:37.539Z,100855.39
2019-05-21T17:56:07.025Z,100855.22
2019-05-21T17:58:36.368Z,100863.92
2019-05-21T18:01:09.104Z,100854.84
2019-05-21T18:03:38.342Z,100853.56
2019-05-21T18:06:08.196Z,100852.78
2019-05-21T18:08:37.901Z,100851.14
2019-05-21T18:11:07.434Z,100848.27
2019-05-21T18:13:39.246Z,100854.31
2019-05-21T18:16:08.792Z,100863.62
2019-05-21T18:18:38.120Z,100857.24
2019-05-21T18:21:09.457Z,100861.36
2019-05-21T18:23:38.936Z,100859.78
2019-05-21T18:26:08.355Z,100863.16
2019-05-21T18:28:38.094Z,100864.36
2019-05-21T18:31:07.473Z,100862.73
2019-05-21T18:33:36.719Z,100866.87
2019-05-21T18:36:06.237Z,100861.58
2019-05-21T18:38:35.598Z,100864.77
2019-05-21T18:41:04.929Z,100867.39
2019-05-21T18:43:34.347Z,100876.78
2019-05-21T18:46:03.619Z,100876.80
2019-05-21T18:48:32.884Z,100880.83
2019-05-21T18:51:03.786Z,100876.44
2019-05-21T18:53:33.087Z,100879.62
2019-05-21T18:56:02.430Z,100876.59
2019-05-21T18:58:31.842Z,100882.03
2019-05-21T19:01:01.060Z,100885.25
2019-05-21T19:03:30.403Z,100755.77
2019-05-21T19:05:59.867Z,100881.03
2019-05-21T19:08:29.127Z,100883.78
2019-05-21T19:10:58.363Z,100887.42
2019-05-21T19:13:27.726Z,100885.69
2019-05-21T19:15:57.025Z,100888.81
2019-05-21T19:18:26.463Z,100890.61
2019-05-21T19:20:55.838Z,100887.53
2019-05-21T19:23:25.087Z,100891.53
2019-05-21T19:25:54.291Z,100898.72
2019-05-21T19:28:23.769Z,100890.84
2019-05-21T19:30:53.006Z,100889.16
2019-05-21T19:33:22.258Z,100895.92
2019-05-21T19:35:51.649Z,100893.31
2019-05-21T19:38:20.917Z,100898.68
2019-05-21T19:40:50.256Z,100894.77
2019-05-21T19:43:19.601Z,100894.81
2019-05-21T19:45:48.864Z,100900.61
2019-05-21T19:48:18.234Z,100895.80
2019-05-21T19:50:47.700Z,100901.14
2019-05-21T19:53:16.963Z,100899.81
2019-05-21T19:55:46.237Z,100772.30
2019-05-21T19:58:15.675Z,100905.56
2019-05-21T20:00:52.690Z,100902.93
2019-05-21T20:03:22.359Z,100900.28
2019-05-21T20:05:51.880Z,100900.75
2019-05-21T20:08:21.231Z,100909.62
2019-05-21T20:10:50.731Z,100907.00
2019-05-21T20:13:31.770Z,100902.55
2019-05-21T20:15:51.323Z,100897.27
2019-05-21T20:18:22.674Z,100901.70
2019-05-21T20:20:52.989Z,100904.81
2019-05-21T20:23:22.260Z,100903.95
2019-05-21T20:25:56.479Z,100913.75
2019-05-21T20:28:22.789Z,100913.34
2019-05-21T20:30:52.032Z,100912.48
2019-05-21T20:33:21.332Z,100916.50
2019-05-21T20:35:52.811Z,100911.66
2019-05-21T20:38:23.563Z,100912.55
2019-05-21T20:40:53.489Z,100907.23
2019-05-21T20:43:22.834Z,100908.11
2019-05-21T20:45:52.100Z,100910.31
2019-05-21T20:48:24.003Z,100908.95
2019-05-21T20:50:53.312Z,100908.52
2019-05-21T20:53:23.484Z,100915.63
2019-05-21T20:55:53.168Z,100920.95
2019-05-21T20:58:22.863Z,100918.30
2019-05-21T21:00:55.278Z,100920.95
2019-05-21T21:03:24.923Z,100920.08
2019-05-21T21:05:54.671Z,100920.09
2019-05-21T21:08:27.676Z,100915.23
2019-05-21T21:10:55.523Z,100917.47
2019-05-21T21:13:25.004Z,100920.13
2019-05-21T21:15:54.787Z,100918.80
2019-05-21T21:18:24.248Z,100915.67
2019-05-21T21:20:53.650Z,100917.89
2019-05-21T21:23:25.020Z,100924.98
2019-05-21T21:25:54.419Z,100913.48
2019-05-21T21:28:23.655Z,100917.02
2019-05-21T21:30:53.675Z,100908.17
2019-05-21T21:33:23.711Z,100908.18
2019-05-21T21:35:53.020Z,100908.19
2019-05-21T21:38:25.356Z,100905.06
2019-05-21T21:40:54.627Z,100902.84
2019-05-21T21:43:24.141Z,100900.20
2019-05-21T21:45:53.919Z,100904.19
2019-05-21T21:48:23.434Z,100899.33
2019-05-21T21:50:52.997Z,100900.67
2019-05-21T21:53:22.514Z,100894.92
2019-05-21T21:55:53.941Z,100900.23
2019-05-21T21:58:23.599Z,100909.97
2019-05-21T22:01:23.096Z,100905.12
2019-05-21T22:03:52.899Z,100909.56
2019-05-21T22:06:22.907Z,100912.23
2019-05-21T22:08:52.490Z,100910.09
2019-05-21T22:11:21.812Z,100901.70
2019-05-21T22:13:51.327Z,100907.02
2019-05-21T22:16:21.138Z,100909.66
2019-05-21T22:18:50.825Z,100911.44
2019-05-21T22:21:20.056Z,100912.31
2019-05-21T22:23:50.465Z,100908.33
2019-05-21T22:26:20.340Z,100902.59
2019-05-21T22:28:49.976Z,100907.02
2019-05-21T22:31:19.430Z,100911.88
2019-05-21T22:33:48.904Z,100908.34
2019-05-21T22:36:18.695Z,100905.70
2019-05-21T22:38:47.938Z,100912.33
2019-05-21T22:41:17.339Z,100910.56
2019-05-21T22:43:46.791Z,100785.49
2019-05-21T22:46:16.275Z,100905.70
2019-05-21T22:48:46.161Z,100900.39
2019-05-21T22:51:15.634Z,100897.30
2019-05-21T22:53:44.980Z,100901.28
2019-05-21T22:56:14.647Z,100889.34
2019-05-21T22:58:44.178Z,100818.62
2019-05-21T23:01:14.231Z,100892.88
2019-05-21T23:03:43.646Z,100892.44
2019-05-21T23:06:12.854Z,100891.12
2019-05-21T23:08:42.228Z,100888.91
2019-05-21T23:11:11.656Z,100881.83
2019-05-21T23:13:40.995Z,100880.51
2019-05-21T23:16:10.978Z,100873.88
2019-05-21T23:18:40.687Z,100880.06
2019-05-21T23:21:11.377Z,100875.64
2019-05-21T23:23:41.576Z,100875.64
2019-05-21T23:26:11.567Z,100876.52
2019-05-21T23:28:42.341Z,100874.30
2019-05-21T23:31:13.180Z,100868.56
2019-05-21T23:33:43.650Z,100872.55
2019-05-21T23:36:13.556Z,100871.23
2019-05-21T23:38:43.155Z,100863.27
2019-05-21T23:41:12.981Z,100865.48
2019-05-21T23:43:42.415Z,100853.96
2019-05-21T23:46:12.976Z,100863.24
2019-05-21T23:48:42.446Z,100858.38
2019-05-21T23:51:11.937Z,100854.84
2019-05-21T23:53:41.230Z,100848.22
2019-05-21T23:56:10.728Z,100851.31
2019-05-21T23:58:39.979Z,100842.92
